createdAt,value
2022-09-16T00:01:06.834Z,14.33
2022-09-16T00:03:36.911Z,14.23
2022-09-16T00:06:07.050Z,12.75
2022-09-16T00:08:37.289Z,10.23
2022-09-16T00:11:07.777Z,11.80
2022-09-16T00:13:38.127Z,10.72
2022-09-16T00:16:09.423Z,13.15
2022-09-16T00:18:39.902Z,11.43
2022-09-16T00:21:10.904Z,11.88
2022-09-16T00:23:41.540Z,10.85
2022-09-16T00:26:11.802Z,10.30
2022-09-16T00:28:42.227Z,12.15
2022-09-16T00:31:13.762Z,9.60
2022-09-16T00:33:44.002Z,9.33
2022-09-16T00:36:15.761Z,7.65
2022-09-16T00:38:46.299Z,10.25
2022-09-16T00:41:17.721Z,10.45
2022-09-16T00:43:49.334Z,11.30
2022-09-16T00:46:20.768Z,9.73
2022-09-16T00:48:52.300Z,10.40
2022-09-16T00:51:22.546Z,7.47
2022-09-16T00:53:56.082Z,12.78
2022-09-16T00:56:26.865Z,9.30
2022-09-16T00:58:58.231Z,8.38
2022-09-16T01:01:28.385Z,9.40
2022-09-16T01:03:59.809Z,12.47
2022-09-16T01:06:30.527Z,7.35
2022-09-16T01:09:01.826Z,6.75
2022-09-16T01:11:31.982Z,6.53
2022-09-16T01:14:04.356Z,5.87
2022-09-16T01:16:35.851Z,8.00
2022-09-16T01:19:07.213Z,5.40
2022-09-16T01:21:39.997Z,5.15
2022-09-16T01:24:09.950Z,6.28
2022-09-16T01:26:39.729Z,8.40
2022-09-16T01:29:10.971Z,7.55
2022-09-16T01:31:41.078Z,9.20
2022-09-16T01:34:12.436Z,6.87
2022-09-16T01:36:42.158Z,4.08
2022-09-16T01:39:13.486Z,5.30
2022-09-16T01:41:45.212Z,6.05
2022-09-16T01:44:17.570Z,5.08
2022-09-16T01:46:49.003Z,5.92
2022-09-16T01:49:20.487Z,5.80
2022-09-16T01:51:51.877Z,8.58
2022-09-16T01:54:23.232Z,5.70
2022-09-16T01:56:57.578Z,7.08
2022-09-16T01:59:29.186Z,5.87
2022-09-16T02:02:01.089Z,4.87
2022-09-16T02:04:33.871Z,4.50
2022-09-16T02:07:05.157Z,5.45
2022-09-16T02:09:36.512Z,6.42
2022-09-16T02:12:07.873Z,4.90
2022-09-16T02:14:39.809Z,7.50
2022-09-16T02:17:11.204Z,5.30
2022-09-16T02:19:42.529Z,6.37
2022-09-16T02:22:14.569Z,6.72
2022-09-16T02:24:46.009Z,4.45
2022-09-16T02:27:18.083Z,9.20
2022-09-16T02:29:49.397Z,5.83
2022-09-16T02:32:20.952Z,4.97
2022-09-16T02:34:54.883Z,4.37
2022-09-16T02:37:26.300Z,4.83
2022-09-16T02:39:59.567Z,4.15
2022-09-16T02:42:33.886Z,5.08
2022-09-16T02:45:04.285Z,6.15
2022-09-16T02:47:35.585Z,4.15
2022-09-16T02:50:06.834Z,4.70
2022-09-16T02:52:40.307Z,7.20
2022-09-16T02:55:13.635Z,5.08
2022-09-16T02:57:44.533Z,4.67
2022-09-16T03:00:14.773Z,5.50
2022-09-16T03:02:45.128Z,4.53
2022-09-16T03:05:15.302Z,4.22
2022-09-16T03:07:45.491Z,5.83
2022-09-16T03:10:16.221Z,11.35
2022-09-16T03:12:50.618Z,5.55
2022-09-16T03:15:20.391Z,5.67
2022-09-16T03:17:51.926Z,5.25
2022-09-16T03:20:23.423Z,4.72
2022-09-16T03:22:55.137Z,5.50
2022-09-16T03:25:27.083Z,6.28
2022-09-16T03:27:58.791Z,4.17
2022-09-16T03:30:31.800Z,4.30
2022-09-16T03:33:03.349Z,3.17
2022-09-16T03:35:34.691Z,4.12
2022-09-16T03:38:10.260Z,3.35
2022-09-16T03:40:40.506Z,4.30
2022-09-16T03:43:14.535Z,4.40
2022-09-16T03:45:46.638Z,7.35
2022-09-16T03:48:16.647Z,4.17
2022-09-16T03:50:47.447Z,4.72
2022-09-16T03:53:18.011Z,3.27
2022-09-16T03:55:52.088Z,3.12
2022-09-16T03:58:23.401Z,5.67
2022-09-16T04:00:55.757Z,3.85
2022-09-16T04:03:26.389Z,3.80
2022-09-16T04:05:56.844Z,3.22
2022-09-16T04:08:28.276Z,2.95
2022-09-16T04:11:00.354Z,3.92
2022-09-16T04:13:33.561Z,4.28
2022-09-16T04:16:07.451Z,3.95
2022-09-16T04:18:39.548Z,4.33
2022-09-16T04:21:08.969Z,3.98
2022-09-16T04:23:40.828Z,3.80
2022-09-16T04:26:10.828Z,3.45
2022-09-16T04:28:41.038Z,3.45
2022-09-16T04:31:12.601Z,2.92
2022-09-16T04:33:43.314Z,4.62
2022-09-16T04:36:14.362Z,2.55
2022-09-16T04:38:45.598Z,3.17
2022-09-16T04:41:17.083Z,4.00
2022-09-16T04:43:47.879Z,6.53
2022-09-16T04:46:18.050Z,4.37
2022-09-16T04:48:51.661Z,4.20
2022-09-16T04:51:23.792Z,3.17
2022-09-16T04:53:56.184Z,4.65
2022-09-16T04:56:27.541Z,3.40
2022-09-16T04:59:00.810Z,5.58
2022-09-16T05:01:31.902Z,3.27
2022-09-16T05:04:03.716Z,3.83
2022-09-16T05:06:35.472Z,3.33
2022-09-16T05:09:05.954Z,2.72
2022-09-16T05:11:37.828Z,3.37
2022-09-16T05:14:12.252Z,2.77
2022-09-16T05:16:44.781Z,3.58
2022-09-16T05:19:16.360Z,4.72
2022-09-16T05:21:46.757Z,4.03
2022-09-16T05:24:18.547Z,2.58
2022-09-16T05:26:48.059Z,3.90
2022-09-16T05:29:18.692Z,4.17
2022-09-16T05:31:48.718Z,2.80
2022-09-16T05:34:20.242Z,4.33
2022-09-16T05:36:52.060Z,3.58
2022-09-16T05:39:24.071Z,2.92
2022-09-16T05:41:55.484Z,5.22
2022-09-16T05:44:26.019Z,2.52
2022-09-16T05:46:56.431Z,2.87
2022-09-16T05:49:27.107Z,5.85
2022-09-16T05:51:57.495Z,2.95
2022-09-16T05:54:28.064Z,1.95
2022-09-16T05:56:58.258Z,2.60
2022-09-16T05:59:28.368Z,3.08
2022-09-16T06:01:58.512Z,3.98
2022-09-16T06:04:28.735Z,3.22
2022-09-16T06:06:58.988Z,2.35
2022-09-16T06:09:29.970Z,5.50
2022-09-16T06:12:02.271Z,3.60
2022-09-16T06:14:32.092Z,2.52
2022-09-16T06:17:02.862Z,4.00
2022-09-16T06:19:32.896Z,2.40
2022-09-16T06:22:02.984Z,3.12
2022-09-16T06:24:33.464Z,3.65
2022-09-16T06:27:03.653Z,3.17
2022-09-16T06:29:33.697Z,11.12
2022-09-16T06:32:03.862Z,3.58
2022-09-16T06:34:34.344Z,3.00
2022-09-16T06:37:04.913Z,5.30
2022-09-16T06:39:35.297Z,3.85
2022-09-16T06:42:05.726Z,4.35
2022-09-16T06:44:36.254Z,3.27
2022-09-16T06:47:06.801Z,3.70
2022-09-16T06:49:37.146Z,4.40
2022-09-16T06:52:07.792Z,7.10
2022-09-16T06:54:38.274Z,3.05
2022-09-16T06:57:11.946Z,4.25
2022-09-16T06:59:39.943Z,3.47
2022-09-16T07:02:11.334Z,3.67
2022-09-16T07:04:42.177Z,4.90
2022-09-16T07:07:12.284Z,3.52
2022-09-16T07:09:42.604Z,2.92
2022-09-16T07:12:15.213Z,3.62
2022-09-16T07:14:44.348Z,5.62
2022-09-16T07:17:14.638Z,4.12
2022-09-16T07:19:45.846Z,4.03
2022-09-16T07:22:15.981Z,3.92
2022-09-16T07:24:47.298Z,3.80
2022-09-16T07:27:17.758Z,3.60
2022-09-16T07:29:48.271Z,3.35
2022-09-16T07:32:18.775Z,2.12
2022-09-16T07:34:49.009Z,2.87
2022-09-16T07:37:20.855Z,2.98
2022-09-16T07:39:51.685Z,6.03
2022-09-16T07:42:21.996Z,3.60
2022-09-16T07:44:52.285Z,3.72
2022-09-16T07:47:22.478Z,2.37
2022-09-16T07:49:54.220Z,1.57
2022-09-16T07:52:26.812Z,2.02
2022-09-16T07:54:57.432Z,2.22
2022-09-16T07:57:29.087Z,1.87
2022-09-16T07:59:59.272Z,3.62
2022-09-16T08:02:29.605Z,3.40
2022-09-16T08:05:00.208Z,2.20
2022-09-16T08:07:30.535Z,2.95
2022-09-16T08:10:01.026Z,1.92
2022-09-16T08:12:33.053Z,2.10
2022-09-16T08:15:03.667Z,3.27
2022-09-16T08:17:34.175Z,4.15
2022-09-16T08:20:06.321Z,1.90
2022-09-16T08:22:37.373Z,3.35
2022-09-16T08:25:08.497Z,4.78
2022-09-16T08:27:39.458Z,2.55
2022-09-16T08:30:10.203Z,4.83
2022-09-16T08:32:40.524Z,2.22
2022-09-16T08:35:10.669Z,3.42
2022-09-16T08:37:41.249Z,2.98
2022-09-16T08:40:12.767Z,4.12
2022-09-16T08:42:44.518Z,2.40
2022-09-16T08:45:16.315Z,4.08
2022-09-16T08:47:49.211Z,2.70
2022-09-16T08:50:20.694Z,4.30
2022-09-16T08:52:52.724Z,2.30
2022-09-16T08:55:24.633Z,5.83
2022-09-16T08:57:56.564Z,2.10
2022-09-16T09:00:26.567Z,4.78
2022-09-16T09:02:57.945Z,3.70
2022-09-16T09:05:27.726Z,4.72
2022-09-16T09:07:59.309Z,4.10
2022-09-16T09:10:30.857Z,3.12
2022-09-16T09:13:02.530Z,4.05
2022-09-16T09:15:34.375Z,2.75
2022-09-16T09:18:05.945Z,3.85
2022-09-16T09:20:36.024Z,3.70
2022-09-16T09:23:07.566Z,3.27
2022-09-16T09:25:39.430Z,2.12
2022-09-16T09:28:10.105Z,1.90
2022-09-16T09:30:41.366Z,2.87
2022-09-16T09:33:28.031Z,3.65
2022-09-16T09:35:46.681Z,4.20
2022-09-16T09:38:18.188Z,3.70
2022-09-16T09:40:49.432Z,4.03
2022-09-16T09:43:19.260Z,2.50
2022-09-16T09:45:51.084Z,3.70
2022-09-16T09:48:21.013Z,3.90
2022-09-16T09:50:52.192Z,2.33
2022-09-16T09:53:25.128Z,2.87
2022-09-16T09:55:56.457Z,2.62
2022-09-16T09:58:28.044Z,3.77
2022-09-16T10:00:58.958Z,3.08
2022-09-16T10:03:30.443Z,1.85
2022-09-16T10:06:00.535Z,3.65
2022-09-16T10:08:32.143Z,3.45
2022-09-16T10:11:04.045Z,2.90
2022-09-16T10:13:34.683Z,4.25
2022-09-16T10:16:06.164Z,5.37
2022-09-16T10:18:36.483Z,3.75
2022-09-16T10:21:08.272Z,2.00
2022-09-16T10:23:40.655Z,2.45
2022-09-16T10:26:12.131Z,2.52
2022-09-16T10:28:42.313Z,4.40
2022-09-16T10:31:13.031Z,4.50
2022-09-16T10:33:46.071Z,2.70
2022-09-16T10:36:17.241Z,6.35
2022-09-16T10:38:48.954Z,3.92
2022-09-16T10:41:20.811Z,2.80
2022-09-16T10:43:52.281Z,2.42
2022-09-16T10:46:23.049Z,2.75
2022-09-16T10:48:55.280Z,5.55
2022-09-16T10:51:26.960Z,3.22
2022-09-16T10:53:58.383Z,4.42
2022-09-16T10:56:31.024Z,5.55
2022-09-16T10:59:02.424Z,2.40
2022-09-16T11:01:36.000Z,3.58
2022-09-16T11:04:07.420Z,2.83
2022-09-16T11:06:38.957Z,4.65
2022-09-16T11:09:10.488Z,4.92
2022-09-16T11:11:40.120Z,6.10
2022-09-16T11:14:11.457Z,4.72
2022-09-16T11:16:45.602Z,4.22
2022-09-16T11:19:17.496Z,7.97
